createdAt,value
2022-08-28T00:00:41.765Z,16.96
2022-08-28T00:03:10.636Z,17.04
2022-08-28T00:05:39.545Z,16.99
2022-08-28T00:08:10.165Z,17.05
2022-08-28T00:10:40.045Z,17.12
2022-08-28T00:13:08.770Z,16.91
2022-08-28T00:15:40.404Z,17.04
2022-08-28T00:18:09.390Z,16.76
2022-08-28T00:20:38.550Z,17.11
2022-08-28T00:23:07.353Z,17.09
2022-08-28T00:25:35.969Z,16.93
2022-08-28T00:28:09.008Z,17.18
2022-08-28T00:30:40.890Z,17.03
2022-08-28T00:33:13.105Z,17.30
2022-08-28T00:35:42.374Z,17.44
2022-08-28T00:38:11.754Z,17.28
2022-08-28T00:40:42.670Z,17.23
2022-08-28T00:43:15.070Z,17.32
2022-08-28T00:45:44.421Z,17.33
2022-08-28T00:48:12.548Z,16.75
2022-08-28T00:51:00.687Z,17.32
2022-08-28T00:53:32.827Z,17.38
2022-08-28T00:56:04.226Z,17.28
2022-08-28T00:58:37.763Z,17.27
2022-08-28T01:01:07.462Z,17.43
2022-08-28T01:03:35.469Z,17.75
2022-08-28T01:06:03.950Z,17.58
2022-08-28T01:08:32.062Z,17.65
2022-08-28T01:11:01.431Z,17.53
2022-08-28T01:13:30.505Z,17.78
2022-08-28T01:15:59.155Z,17.13
2022-08-28T01:18:30.482Z,17.62
2022-08-28T01:21:03.153Z,17.51
2022-08-28T01:23:45.755Z,17.53
2022-08-28T01:26:14.416Z,17.66
2022-08-28T01:28:42.389Z,17.59
2022-08-28T01:31:11.091Z,17.52
2022-08-28T01:33:42.505Z,17.47
2022-08-28T01:36:12.371Z,17.18
2022-08-28T01:38:43.871Z,17.68
2022-08-28T01:41:13.929Z,17.70
2022-08-28T01:43:43.341Z,17.73
2022-08-28T01:46:13.023Z,18.04
2022-08-28T01:48:44.135Z,17.91
2022-08-28T01:51:13.520Z,17.82
2022-08-28T01:53:45.184Z,17.90
2022-08-28T01:56:16.878Z,18.12
2022-08-28T01:58:45.438Z,18.05
2022-08-28T02:01:14.978Z,17.94
2022-08-28T02:03:43.873Z,17.81
2022-08-28T02:06:12.329Z,17.77
2022-08-28T02:08:41.938Z,17.76
2022-08-28T02:11:10.129Z,17.71
2022-08-28T02:13:39.177Z,17.65
2022-08-28T02:16:08.943Z,17.57
2022-08-28T02:18:37.895Z,17.63
2022-08-28T02:21:06.360Z,17.64
2022-08-28T02:23:34.457Z,17.52
2022-08-28T02:26:03.812Z,17.51
2022-08-28T02:28:31.837Z,17.42
2022-08-28T02:30:59.861Z,17.31
2022-08-28T02:33:27.989Z,17.28
2022-08-28T02:35:56.973Z,17.23
2022-08-28T02:38:25.030Z,17.30
2022-08-28T02:40:53.133Z,17.34
2022-08-28T02:43:22.514Z,17.34
2022-08-28T02:45:50.661Z,17.45
2022-08-28T02:48:18.968Z,17.50
2022-08-28T02:50:47.297Z,17.75
2022-08-28T02:53:15.534Z,17.67
2022-08-28T02:55:43.537Z,17.52
2022-08-28T02:58:11.680Z,17.48
2022-08-28T03:00:41.448Z,17.41
2022-08-28T03:03:09.386Z,17.42
2022-08-28T03:05:37.385Z,17.41
2022-08-28T03:08:06.088Z,17.59
2022-08-28T03:10:34.362Z,17.47
2022-08-28T03:13:02.362Z,17.35
2022-08-28T03:15:30.377Z,17.41
2022-08-28T03:17:59.750Z,17.36
2022-08-28T03:20:28.261Z,17.44
2022-08-28T03:23:13.608Z,17.49
2022-08-28T03:25:41.638Z,17.58
2022-08-28T03:28:09.680Z,17.68
2022-08-28T03:30:37.786Z,17.60
2022-08-28T03:33:07.198Z,17.58
2022-08-28T03:35:35.309Z,17.62
2022-08-28T03:38:03.317Z,17.78
2022-08-28T03:40:32.278Z,17.80
2022-08-28T03:43:00.310Z,17.82
2022-08-28T03:45:28.299Z,17.90
2022-08-28T03:47:56.501Z,17.72
2022-08-28T03:50:27.230Z,17.84
2022-08-28T03:52:57.441Z,17.84
2022-08-28T03:55:25.752Z,17.78
2022-08-28T03:57:54.013Z,17.97
2022-08-28T04:00:22.075Z,18.00
2022-08-28T04:02:50.198Z,18.06
2022-08-28T04:05:18.369Z,17.86
2022-08-28T04:07:48.321Z,17.98
2022-08-28T04:10:16.318Z,18.06
2022-08-28T04:12:44.801Z,17.90
2022-08-28T04:15:15.137Z,18.18
2022-08-28T04:17:43.385Z,18.07
2022-08-28T04:20:12.379Z,18.00
2022-08-28T04:22:40.425Z,18.09
2022-08-28T04:25:10.663Z,18.09
2022-08-28T04:27:38.690Z,18.33
2022-08-28T04:30:09.754Z,18.26
2022-08-28T04:32:39.259Z,18.30
2022-08-28T04:35:08.993Z,18.30
2022-08-28T04:37:37.295Z,18.25
2022-08-28T04:40:05.805Z,18.27
2022-08-28T04:42:35.330Z,18.24
2022-08-28T04:45:03.323Z,18.27
2022-08-28T04:47:31.755Z,18.32
2022-08-28T04:49:59.753Z,18.25
2022-08-28T04:52:27.837Z,18.20
2022-08-28T04:54:55.857Z,18.28
2022-08-28T04:57:23.814Z,18.32
2022-08-28T04:59:53.223Z,18.11
2022-08-28T05:02:21.382Z,18.20
2022-08-28T05:04:49.365Z,18.28
2022-08-28T05:07:17.309Z,18.42
2022-08-28T05:09:45.381Z,18.38
2022-08-28T05:12:17.247Z,18.31
2022-08-28T05:14:45.870Z,18.25
2022-08-28T05:17:15.271Z,18.20
2022-08-28T05:19:43.801Z,18.10
2022-08-28T05:22:11.862Z,18.04
2022-08-28T05:24:40.510Z,17.98
2022-08-28T05:27:08.657Z,17.93
2022-08-28T05:29:36.635Z,18.00
2022-08-28T05:32:05.566Z,17.93
2022-08-28T05:34:35.213Z,18.01
2022-08-28T05:37:03.248Z,18.00
2022-08-28T05:39:31.221Z,17.88
2022-08-28T05:41:59.229Z,18.04
2022-08-28T05:44:27.218Z,18.10
2022-08-28T05:46:55.940Z,17.93
2022-08-28T05:49:24.054Z,18.10
2022-08-28T05:51:53.422Z,18.13
2022-08-28T05:54:21.397Z,18.12
2022-08-28T05:56:49.373Z,18.13
2022-08-28T05:59:17.900Z,18.04
2022-08-28T06:01:47.804Z,18.02
2022-08-28T06:04:17.808Z,18.02
2022-08-28T06:06:46.879Z,17.83
2022-08-28T06:09:19.197Z,17.89
2022-08-28T06:11:48.016Z,18.04
2022-08-28T06:14:20.679Z,17.95
2022-08-28T06:16:50.897Z,17.93
2022-08-28T06:19:19.471Z,17.77
2022-08-28T06:21:48.314Z,17.90
2022-08-28T06:24:17.701Z,17.93
2022-08-28T06:26:46.409Z,17.91
2022-08-28T06:29:18.365Z,17.83
2022-08-28T06:31:50.367Z,17.71
2022-08-28T06:34:18.342Z,17.73
2022-08-28T06:36:49.494Z,17.83
2022-08-28T06:39:21.307Z,17.82
2022-08-28T06:41:49.383Z,17.81
2022-08-28T06:44:20.550Z,17.75
2022-08-28T06:46:49.252Z,17.82
2022-08-28T06:49:17.383Z,17.61
2022-08-28T06:51:45.624Z,17.52
2022-08-28T06:54:18.437Z,17.40
2022-08-28T06:56:51.699Z,17.59
2022-08-28T06:59:19.746Z,17.71
2022-08-28T07:01:47.802Z,17.50
2022-08-28T07:04:15.896Z,17.21
2022-08-28T07:06:47.126Z,17.38
2022-08-28T07:09:16.383Z,17.54
2022-08-28T07:11:46.627Z,17.57
2022-08-28T07:14:16.089Z,17.61
2022-08-28T07:16:44.564Z,17.73
2022-08-28T07:19:13.569Z,17.64
2022-08-28T07:21:42.948Z,17.75
2022-08-28T07:24:12.092Z,17.70
2022-08-28T07:26:41.545Z,18.07
2022-08-28T07:29:11.550Z,18.09
2022-08-28T07:31:42.549Z,17.99
2022-08-28T07:34:11.290Z,18.15
2022-08-28T07:36:39.549Z,18.22
2022-08-28T07:39:09.173Z,18.25
2022-08-28T07:41:39.321Z,18.26
2022-08-28T07:44:25.852Z,18.26
2022-08-28T07:46:56.450Z,18.40
2022-08-28T07:49:24.951Z,18.59
2022-08-28T07:51:54.226Z,18.73
2022-08-28T07:54:22.814Z,18.66
2022-08-28T07:56:51.015Z,18.64
2022-08-28T07:59:20.271Z,18.66
2022-08-28T08:01:52.116Z,18.42
2022-08-28T08:04:23.415Z,18.96
2022-08-28T08:06:57.624Z,18.54
2022-08-28T08:09:26.067Z,18.80
2022-08-28T08:11:56.285Z,18.78
2022-08-28T08:14:24.959Z,19.17
2022-08-28T08:16:53.495Z,19.06
2022-08-28T08:19:22.911Z,19.24
2022-08-28T08:21:54.974Z,19.33
2022-08-28T08:24:26.433Z,19.28
2022-08-28T08:26:59.802Z,19.20
2022-08-28T08:29:29.930Z,19.27
2022-08-28T08:32:04.922Z,19.33
2022-08-28T08:34:35.542Z,19.58
2022-08-28T08:37:03.496Z,19.43
2022-08-28T08:39:31.857Z,19.27
2022-08-28T08:42:01.973Z,19.45
2022-08-28T08:44:33.586Z,19.41
2022-08-28T08:47:14.207Z,19.40
2022-08-28T08:49:50.312Z,19.19
2022-08-28T08:52:36.490Z,19.16
2022-08-28T08:55:15.027Z,19.14
2022-08-28T08:57:44.334Z,19.32
2022-08-28T09:00:16.204Z,19.38
2022-08-28T09:02:48.120Z,19.61
2022-08-28T09:05:20.720Z,19.55
2022-08-28T09:07:53.276Z,19.41
2022-08-28T09:10:21.518Z,19.44
2022-08-28T09:12:54.412Z,19.27
2022-08-28T09:15:29.507Z,19.15
2022-08-28T09:18:04.225Z,19.28
2022-08-28T09:20:33.684Z,19.19
2022-08-28T09:23:02.067Z,19.34
2022-08-28T09:25:54.129Z,19.27
2022-08-28T09:28:25.253Z,19.19
2022-08-28T09:31:00.800Z,19.18
2022-08-28T09:33:37.303Z,19.08
2022-08-28T09:36:33.867Z,19.02
2022-08-28T09:39:14.230Z,18.78
2022-08-28T09:42:19.112Z,18.69
2022-08-28T09:44:52.986Z,18.47
2022-08-28T09:47:46.721Z,18.42
2022-08-28T09:50:33.958Z,18.32
2022-08-28T09:53:19.281Z,18.65
2022-08-28T09:56:00.579Z,18.46
2022-08-28T09:58:34.555Z,18.51
2022-08-28T10:01:10.079Z,18.32
2022-08-28T10:03:44.040Z,18.36
2022-08-28T10:06:16.733Z,18.26
2022-08-28T10:09:00.065Z,18.36
2022-08-28T10:11:34.290Z,18.32
2022-08-28T10:14:08.325Z,18.01
2022-08-28T10:16:42.106Z,18.04
2022-08-28T10:19:17.638Z,18.14
2022-08-28T10:21:47.914Z,18.14
2022-08-28T10:24:28.794Z,18.31
2022-08-28T10:27:02.097Z,18.23
2022-08-28T10:29:38.174Z,18.24
2022-08-28T10:32:16.389Z,18.55
2022-08-28T10:34:55.537Z,18.29
2022-08-28T10:37:31.306Z,18.13
2022-08-28T10:40:04.600Z,18.57
2022-08-28T10:42:36.011Z,18.36
2022-08-28T10:45:08.736Z,18.41
2022-08-28T10:47:39.385Z,18.37
2022-08-28T10:50:11.203Z,18.43
2022-08-28T10:52:41.702Z,18.34
2022-08-28T10:55:14.329Z,18.36
2022-08-28T10:57:43.932Z,18.40
2022-08-28T11:00:14.751Z,18.55
2022-08-28T11:02:47.367Z,18.41
2022-08-28T11:05:15.678Z,18.44
2022-08-28T11:07:48.478Z,18.37
2022-08-28T11:10:21.732Z,18.29
2022-08-28T11:12:51.426Z,18.39
2022-08-28T11:15:42.327Z,18.37
2022-08-28T11:18:49.763Z,18.27
2022-08-28T11:21:26.457Z,18.31
2022-08-28T11:24:01.328Z,18.23
2022-08-28T11:26:36.949Z,18.31
2022-08-28T11:29:05.235Z,18.26
2022-08-28T11:31:39.520Z,18.47
2022-08-28T11:34:07.804Z,18.57
2022-08-28T11:36:59.886Z,19.01
2022-08-28T11:39:27.939Z,19.00
2022-08-28T11:42:35.303Z,18.75
2022-08-28T11:45:03.253Z,19.15
2022-08-28T11:47:44.088Z,19.18
2022-08-28T11:50:31.715Z,19.08
2022-08-28T11:53:31.656Z,19.43
2022-08-28T11:56:35.063Z,19.31
2022-08-28T11:59:19.792Z,19.51
2022-08-28T12:01:49.824Z,20.07
2022-08-28T12:04:20.161Z,20.63
2022-08-28T12:06:53.306Z,20.82
2022-08-28T12:09:40.738Z,20.94
2022-08-28T12:12:12.783Z,21.37
2022-08-28T12:15:12.640Z,21.53
2022-08-28T12:17:43.975Z,21.44
2022-08-28T12:20:14.501Z,21.21
2022-08-28T12:22:49.953Z,21.06
2022-08-28T12:25:26.456Z,21.97
2022-08-28T12:27:55.376Z,22.50
2022-08-28T12:30:34.599Z,23.04
2022-08-28T12:33:09.880Z,23.37
2022-08-28T12:35:38.020Z,23.69
2022-08-28T12:38:09.369Z,23.58
2022-08-28T12:40:50.764Z,23.66
2022-08-28T12:43:29.565Z,23.41
2022-08-28T12:46:01.091Z,23.30
2022-08-28T12:48:31.581Z,22.38
2022-08-28T12:51:03.429Z,22.42
2022-08-28T12:53:39.633Z,21.82
2022-08-28T12:56:10.133Z,21.98
2022-08-28T12:58:40.513Z,22.04
2022-08-28T13:01:12.354Z,22.00
2022-08-28T13:03:45.920Z,21.73
2022-08-28T13:06:14.241Z,21.82
2022-08-28T13:08:42.445Z,21.76
2022-08-28T13:11:11.021Z,21.92
2022-08-28T13:13:47.756Z,21.41
2022-08-28T13:16:35.910Z,21.60
2022-08-28T13:19:28.777Z,21.41
2022-08-28T13:22:00.716Z,21.14
2022-08-28T13:24:52.548Z,21.54
2022-08-28T13:27:25.583Z,21.20
2022-08-28T13:30:07.023Z,21.54
2022-08-28T13:32:40.167Z,21.56
2022-08-28T13:35:13.599Z,21.74
2022-08-28T13:37:44.724Z,21.89
2022-08-28T13:40:36.869Z,21.57
2022-08-28T13:43:06.956Z,21.23
2022-08-28T13:45:42.931Z,21.32
2022-08-28T13:48:14.043Z,21.71
2022-08-28T13:50:46.449Z,21.29
2022-08-28T13:53:15.381Z,21.61
2022-08-28T13:55:43.305Z,21.62
2022-08-28T13:58:11.368Z,21.45
2022-08-28T14:00:43.398Z,20.98
2022-08-28T14:03:30.534Z,20.61
2022-08-28T14:05:58.496Z,20.06
2022-08-28T14:08:26.574Z,19.74
2022-08-28T14:10:54.481Z,19.68
2022-08-28T14:13:23.288Z,19.63
2022-08-28T14:15:51.257Z,19.45
2022-08-28T14:18:20.868Z,19.32
2022-08-28T14:20:48.881Z,19.32
2022-08-28T14:23:17.726Z,19.08
2022-08-28T14:25:47.539Z,19.02
2022-08-28T14:28:16.332Z,18.89
2022-08-28T14:30:44.609Z,19.00
2022-08-28T14:33:15.061Z,18.90
2022-08-28T14:35:44.633Z,18.85
2022-08-28T14:38:12.886Z,18.89
2022-08-28T14:40:42.813Z,18.95
2022-08-28T14:43:12.002Z,18.90
2022-08-28T14:45:43.829Z,18.97
2022-08-28T14:48:11.868Z,19.04
2022-08-28T14:50:41.985Z,18.74
2022-08-28T14:53:11.607Z,18.58
2022-08-28T14:55:41.572Z,18.93
2022-08-28T14:58:09.577Z,18.96
2022-08-28T15:00:42.283Z,19.05
2022-08-28T15:03:10.733Z,18.90
2022-08-28T15:05:38.730Z,19.01
2022-08-28T15:08:08.428Z,19.07
2022-08-28T15:10:38.657Z,19.05
2022-08-28T15:13:11.705Z,18.85
2022-08-28T15:15:41.324Z,18.88
2022-08-28T15:18:11.330Z,18.72
2022-08-28T15:20:40.524Z,18.82
2022-08-28T15:23:09.056Z,18.95
2022-08-28T15:25:38.453Z,18.93
2022-08-28T15:28:07.020Z,18.85
2022-08-28T15:30:35.568Z,18.78
2022-08-28T15:33:03.849Z,18.92
2022-08-28T15:35:33.692Z,18.83
2022-08-28T15:38:01.732Z,18.91
2022-08-28T15:40:47.065Z,19.05
2022-08-28T15:43:16.478Z,19.22
2022-08-28T15:45:44.880Z,19.22
2022-08-28T15:48:13.393Z,19.42
2022-08-28T15:50:42.641Z,19.53
2022-08-28T15:53:10.920Z,19.66
2022-08-28T15:55:38.868Z,19.77
2022-08-28T15:58:07.475Z,19.90
2022-08-28T16:00:43.684Z,19.94
2022-08-28T16:03:11.835Z,20.08
2022-08-28T16:05:40.993Z,20.22
2022-08-28T16:08:10.368Z,20.28
2022-08-28T16:10:38.407Z,20.06
2022-08-28T16:13:06.844Z,19.91
2022-08-28T16:15:35.090Z,19.84
2022-08-28T16:18:08.827Z,19.68
2022-08-28T16:20:37.131Z,19.55
2022-08-28T16:23:05.129Z,19.24
2022-08-28T16:25:33.095Z,19.21
2022-08-28T16:28:01.049Z,19.53
2022-08-28T16:30:29.108Z,19.37
2022-08-28T16:32:57.176Z,19.43
2022-08-28T16:35:26.805Z,19.18
2022-08-28T16:37:54.936Z,19.28
2022-08-28T16:40:23.437Z,19.22
2022-08-28T16:42:52.251Z,19.24
2022-08-28T16:45:20.526Z,19.17
2022-08-28T16:47:49.088Z,19.29
2022-08-28T16:50:17.763Z,19.28
2022-08-28T16:52:47.682Z,19.14
2022-08-28T16:55:16.165Z,19.14
2022-08-28T16:57:45.005Z,19.12
2022-08-28T17:00:14.294Z,19.10
2022-08-28T17:02:43.479Z,18.91
2022-08-28T17:05:12.141Z,19.11
2022-08-28T17:07:40.961Z,18.98
2022-08-28T17:10:13.485Z,18.91
2022-08-28T17:12:41.903Z,18.83
2022-08-28T17:15:11.462Z,18.79
2022-08-28T17:17:39.704Z,18.84
2022-08-28T17:20:28.903Z,18.68
2022-08-28T17:22:55.886Z,18.71
2022-08-28T17:25:26.173Z,18.68
2022-08-28T17:27:54.220Z,18.61
2022-08-28T17:30:22.616Z,18.62
2022-08-28T17:32:51.720Z,18.61
2022-08-28T17:35:19.959Z,18.64
2022-08-28T17:37:48.083Z,18.71
2022-08-28T17:40:18.384Z,18.50
2022-08-28T17:42:48.837Z,18.54
2022-08-28T17:45:17.717Z,18.41
2022-08-28T17:47:45.698Z,18.37
2022-08-28T17:50:13.665Z,18.25
2022-08-28T17:52:41.620Z,18.23
2022-08-28T17:55:09.985Z,18.16
2022-08-28T17:57:38.068Z,18.17
2022-08-28T18:00:12.121Z,17.99
2022-08-28T18:02:40.376Z,17.94
2022-08-28T18:05:09.591Z,18.00
2022-08-28T18:07:37.913Z,18.09
2022-08-28T18:10:07.329Z,17.92
2022-08-28T18:12:35.930Z,17.91
2022-08-28T18:15:04.576Z,17.84
2022-08-28T18:17:33.976Z,17.79
2022-08-28T18:20:01.924Z,17.88
2022-08-28T18:22:30.067Z,17.80
2022-08-28T18:24:58.657Z,17.89
2022-08-28T18:27:28.659Z,17.98
2022-08-28T18:29:56.956Z,17.67
2022-08-28T18:32:25.573Z,17.81
2022-08-28T18:34:54.888Z,17.80
2022-08-28T18:37:22.861Z,17.75
2022-08-28T18:39:51.581Z,17.63
2022-08-28T18:42:19.732Z,17.71
2022-08-28T18:44:47.721Z,17.77
2022-08-28T18:47:15.676Z,17.75
2022-08-28T18:49:43.633Z,17.69
2022-08-28T18:52:12.999Z,17.73
2022-08-28T18:54:41.101Z,17.81
2022-08-28T18:57:10.608Z,17.61
2022-08-28T18:59:40.016Z,17.56
2022-08-28T19:02:08.769Z,17.50
2022-08-28T19:04:37.880Z,17.50
2022-08-28T19:07:06.143Z,17.13
2022-08-28T19:09:35.500Z,17.41
2022-08-28T19:12:04.025Z,17.29
2022-08-28T19:14:32.034Z,17.32
2022-08-28T19:17:00.413Z,17.48
2022-08-28T19:19:28.731Z,17.48
2022-08-28T19:21:57.168Z,17.42
2022-08-28T19:24:26.580Z,17.30
2022-08-28T19:26:55.907Z,17.25
2022-08-28T19:29:23.858Z,17.16
2022-08-28T19:31:52.447Z,17.12
2022-08-28T19:34:20.594Z,17.15
2022-08-28T19:36:48.598Z,17.17
2022-08-28T19:39:16.595Z,17.19
2022-08-28T19:41:44.868Z,17.12
2022-08-28T19:44:14.940Z,17.00
2022-08-28T19:46:42.993Z,16.87
2022-08-28T19:49:10.979Z,16.67
2022-08-28T19:51:39.968Z,16.86
2022-08-28T19:54:11.065Z,16.79
2022-08-28T19:56:39.984Z,16.85
2022-08-28T19:59:08.895Z,16.77
2022-08-28T20:01:40.861Z,16.76
2022-08-28T20:04:13.391Z,16.76
2022-08-28T20:06:41.480Z,16.75
2022-08-28T20:09:12.674Z,16.69
2022-08-28T20:11:42.280Z,16.83
2022-08-28T20:14:10.267Z,16.88
2022-08-28T20:16:44.517Z,16.80
2022-08-28T20:19:13.093Z,16.76
2022-08-28T20:21:43.732Z,16.73
2022-08-28T20:24:13.465Z,16.92
2022-08-28T20:26:41.840Z,16.88
2022-08-28T20:29:10.668Z,16.84
2022-08-28T20:31:41.063Z,16.83
2022-08-28T20:34:09.348Z,16.73
2022-08-28T20:36:37.341Z,16.75
2022-08-28T20:39:07.220Z,16.73
2022-08-28T20:41:35.734Z,16.73
2022-08-28T20:44:06.279Z,16.76
2022-08-28T20:46:40.448Z,16.70
2022-08-28T20:49:11.037Z,16.74
2022-08-28T20:51:56.395Z,16.50
2022-08-28T20:54:27.609Z,16.67
2022-08-28T20:56:55.959Z,16.75
2022-08-28T20:59:28.780Z,16.82
2022-08-28T21:02:05.932Z,16.88
2022-08-28T21:04:37.531Z,16.86
2022-08-28T21:07:07.251Z,16.90
2022-08-28T21:09:57.179Z,16.90
2022-08-28T21:12:24.665Z,16.77
2022-08-28T21:14:53.401Z,16.64
2022-08-28T21:17:29.423Z,16.74
2022-08-28T21:20:01.185Z,16.82
2022-08-28T21:22:31.656Z,16.78
2022-08-28T21:24:59.996Z,16.52
2022-08-28T21:27:28.125Z,16.76
2022-08-28T21:29:58.082Z,16.83
2022-08-28T21:32:26.271Z,16.94
2022-08-28T21:34:55.331Z,17.01
2022-08-28T21:37:24.771Z,17.11
2022-08-28T21:39:53.945Z,17.19
2022-08-28T21:42:24.716Z,17.05
2022-08-28T21:44:54.027Z,17.31
2022-08-28T21:47:23.116Z,17.29
2022-08-28T21:49:51.890Z,17.25
2022-08-28T21:52:21.014Z,17.12
2022-08-28T21:54:50.754Z,17.12
2022-08-28T21:57:18.782Z,17.00
2022-08-28T21:59:46.801Z,16.98
2022-08-28T22:02:14.774Z,16.98
2022-08-28T22:04:42.819Z,16.91
2022-08-28T22:07:11.996Z,16.96
2022-08-28T22:09:40.122Z,16.98
2022-08-28T22:12:10.118Z,17.05
2022-08-28T22:14:38.622Z,17.01
2022-08-28T22:17:11.537Z,17.08
2022-08-28T22:19:40.352Z,17.22
2022-08-28T22:22:26.061Z,17.24
2022-08-28T22:24:54.071Z,17.12
2022-08-28T22:27:23.761Z,17.18
2022-08-28T22:29:51.918Z,17.26
2022-08-28T22:32:25.413Z,17.39
2022-08-28T22:34:54.110Z,17.40
2022-08-28T22:37:22.994Z,17.18
2022-08-28T22:39:51.049Z,17.23
2022-08-28T22:42:19.073Z,17.06
2022-08-28T22:44:48.992Z,17.02
2022-08-28T22:47:19.036Z,17.14
2022-08-28T22:49:47.169Z,16.82
2022-08-28T22:52:15.395Z,17.29
2022-08-28T22:54:43.603Z,17.26
2022-08-28T22:57:11.772Z,17.32
2022-08-28T22:59:39.749Z,17.29
2022-08-28T23:02:09.277Z,16.86
2022-08-28T23:04:37.300Z,17.06
2022-08-28T23:07:05.469Z,17.03
2022-08-28T23:09:35.963Z,16.92
2022-08-28T23:12:05.370Z,17.09
2022-08-28T23:14:33.462Z,16.96
2022-08-28T23:17:01.552Z,16.93
2022-08-28T23:19:30.929Z,16.99
2022-08-28T23:21:59.765Z,17.01
2022-08-28T23:24:27.915Z,16.93
2022-08-28T23:26:55.954Z,16.91
2022-08-28T23:29:23.992Z,17.05
2022-08-28T23:31:52.098Z,16.94
2022-08-28T23:34:20.114Z,17.04
2022-08-28T23:36:49.485Z,16.88
2022-08-28T23:39:17.616Z,16.93
2022-08-28T23:41:45.569Z,16.94
2022-08-28T23:44:14.648Z,16.89
2022-08-28T23:46:42.622Z,16.83
2022-08-28T23:49:11.585Z,16.82
2022-08-28T23:51:39.581Z,16.91
2022-08-28T23:54:10.211Z,16.87
2022-08-28T23:56:38.945Z,16.85
2022-08-28T23:59:07.408Z,16.80
